KMCO/MCO METAR and TAF weather

Enter ICAO airport designator
Station Type Date Time Source
KMCO METAR 2020/11/25 22:53 UTC NOAA

KMCO 252253Z 12007KT 10SM BKN060 24/17 A3018 RMK AO2 SLP217 T02390172


Station Type Date Time Source
KMCO Decoded METAR 2020/11/25 22:53 UTC NOAA

ORLANDO INTERNATIONAL AIRPORT , FL, United States (KMCO) 28-25N 81-20W 29M
Nov 25, 2020 - 05:53 PM EST / 2020.11.25 2253 UTC
Wind: from the ESE (120 degrees) at 8 MPH (7 KT):0
Visibility: 10 mile(s):0
Sky conditions: mostly cloudy
Temperature: 75.0 F (23.9 C)
Dew Point: 63.0 F (17.2 C)
Relative Humidity: 66%
Pressure (altimeter): 30.18 in. Hg (1022 hPa)
ob: KMCO 252253Z 12007KT 10SM BKN060 24/17 A3018 RMK AO2 SLP217 T02390172
cycle: 23

Station Type Date Time Source
KMCO TAF 2020/11/25 21:06 UTC NOAA

TAF
AMD KMCO 252104Z 2521/2624 13007KT P6SM FEW060
FM260100 12004KT P6SM SCT060
FM260900 13002KT P6SM SCT010
FM261500 15007KT P6SM SCT050
FM262100 09006KT P6SM FEW030

Example: see airport list